Time;durP1;ratioP1;P1;durP2;ratioP2;P2;SDS_P1;SDS_P2;PMS_P1;PMS_P2;Temp;Humidity;BMP_temperature;BMP_pressure;BME280_temperature;BME280_humidity;BME280_pressure;Samples;Min_cycle;Max_cycle;Signal;HPM_P1;HPM_P2
2023/12/19 00:00:50;;;;;;;42.17;36.13;;;;;;;;;;4960625;28;20233;-85
2023/12/19 00:03:15;;;;;;;40.90;35.53;;;;;;;;;;4943867;28;20210;-84
2023/12/19 00:05:41;;;;;;;46.17;36.40;;;;;;;;;;4960465;28;20248;-84
2023/12/19 00:08:08;;;;;;;39.50;34.83;;;;;;;;;;4975923;28;20316;-84
2023/12/19 00:10:35;;;;;;;42.00;36.37;;;;;;;;;;4977039;28;20263;-86
2023/12/19 00:13:02;;;;;;;44.37;36.00;;;;;;;;;;4962371;28;20232;-86
2023/12/19 00:15:33;;;;;;;45.50;36.23;;;;;;;;;;4976976;28;20234;-82
2023/12/19 00:17:58;;;;;;;38.83;34.60;;;;;;;;;;4962081;28;20232;-84
2023/12/19 00:20:25;;;;;;;43.30;33.27;;;;;;;;;;4960856;28;20587;-84
2023/12/19 00:22:53;;;;;;;38.13;31.67;;;;;;;;;;4977711;28;20309;-85
2023/12/19 00:25:23;;;;;;;35.83;32.13;;;;;;;;;;4993600;28;20210;-85
2023/12/19 00:27:49;;;;;;;38.97;32.73;;;;;;;;;;4946583;28;20237;-85
2023/12/19 00:30:17;;;;;;;38.47;32.87;;;;;;;;;;4974859;28;20218;-84
2023/12/19 00:32:45;;;;;;;36.33;32.40;;;;;;;;;;4986384;28;20233;-84
2023/12/19 00:35:11;;;;;;;36.73;30.77;;;;;;;;;;4979609;28;20617;-85
2023/12/19 00:37:37;;;;;;;35.27;31.50;;;;;;;;;;4972879;28;20229;-86
2023/12/19 00:40:04;;;;;;;35.77;32.03;;;;;;;;;;4989637;28;20606;-86
2023/12/19 00:42:30;;;;;;;38.50;31.70;;;;;;;;;;4977528;28;20276;-83
2023/12/19 00:44:57;;;;;;;32.60;28.90;;;;;;;;;;4964226;28;20229;-83
2023/12/19 00:47:26;;;;;;;34.00;30.40;;;;;;;;;;4985611;28;20252;-84
2023/12/19 00:49:51;;;;;;;29.70;26.57;;;;;;;;;;4962455;28;20289;-83
2023/12/19 00:52:21;;;;;;;34.57;29.17;;;;;;;;;;4968692;28;20223;-83
2023/12/19 00:54:47;;;;;;;34.50;30.73;;;;;;;;;;4983836;28;20225;-83
2023/12/19 00:57:12;;;;;;;33.53;29.93;;;;;;;;;;4980753;28;20310;-83
2023/12/19 00:59:39;;;;;;;38.20;31.63;;;;;;;;;;4982988;28;20238;-83
2023/12/19 01:02:06;;;;;;;35.47;31.63;;;;;;;;;;4969662;28;20222;-84
2023/12/19 01:04:35;;;;;;;33.40;29.73;;;;;;;;;;4957443;28;20224;-85
2023/12/19 01:07:01;;;;;;;37.70;33.50;;;;;;;;;;4988724;28;20236;-86
2023/12/19 01:09:29;;;;;;;34.60;30.90;;;;;;;;;;4941666;28;20233;-83
2023/12/19 01:11:55;;;;;;;38.23;31.10;;;;;;;;;;4971935;28;20218;-86
2023/12/19 01:14:20;;;;;;;34.73;28.23;;;;;;;;;;4976338;28;20236;-84
2023/12/19 01:16:48;;;;;;;31.57;27.60;;;;;;;;;;4975792;28;20916;-87
2023/12/19 01:19:14;;;;;;;30.40;27.10;;;;;;;;;;4942622;28;20210;-84
2023/12/19 01:21:39;;;;;;;31.87;27.70;;;;;;;;;;4958413;28;20230;-87
2023/12/19 01:24:07;;;;;;;28.37;25.30;;;;;;;;;;4975121;28;20233;-83
2023/12/19 01:26:32;;;;;;;27.83;24.87;;;;;;;;;;4950995;28;20703;-86
2023/12/19 01:29:01;;;;;;;28.20;25.20;;;;;;;;;;4974083;28;20226;-84
2023/12/19 01:31:31;;;;;;;30.67;24.90;;;;;;;;;;4991815;28;20226;-84
2023/12/19 01:33:59;;;;;;;29.00;25.93;;;;;;;;;;4981383;28;20226;-84
2023/12/19 01:36:28;;;;;;;31.17;24.27;;;;;;;;;;4959128;28;20250;-84
2023/12/19 01:38:54;;;;;;;30.07;24.73;;;;;;;;;;4969179;28;20689;-85
2023/12/19 01:41:21;;;;;;;26.40;23.60;;;;;;;;;;4973983;28;20219;-84
2023/12/19 01:43:47;;;;;;;25.90;23.10;;;;;;;;;;4956963;28;20269;-85
2023/12/19 01:46:15;;;;;;;25.73;22.57;;;;;;;;;;4979039;28;20252;-86
2023/12/19 01:48:43;;;;;;;23.77;21.47;;;;;;;;;;4971036;28;20241;-84
2023/12/19 01:51:11;;;;;;;26.10;23.27;;;;;;;;;;4988641;28;20244;-84
2023/12/19 01:53:37;;;;;;;24.20;21.57;;;;;;;;;;4955859;28;20663;-86
2023/12/19 01:56:05;;;;;;;26.73;21.63;;;;;;;;;;4969018;28;20264;-84
2023/12/19 01:58:31;;;;;;;23.83;21.10;;;;;;;;;;4957286;28;20298;-85
2023/12/19 02:00:59;;;;;;;23.83;19.97;;;;;;;;;;4968373;28;20222;-82
2023/12/19 02:03:25;;;;;;;20.93;18.90;;;;;;;;;;4994796;28;20292;-88
2023/12/19 02:05:52;;;;;;;21.87;19.67;;;;;;;;;;4983761;28;20844;-85
2023/12/19 02:08:21;;;;;;;23.20;20.80;;;;;;;;;;4977752;28;20250;-84
2023/12/19 02:10:49;;;;;;;21.23;19.10;;;;;;;;;;4995084;28;20236;-83
2023/12/19 02:13:14;;;;;;;22.13;19.63;;;;;;;;;;4972398;28;20245;-82
2023/12/19 02:15:40;;;;;;;21.07;18.97;;;;;;;;;;4976642;28;20233;-82
2023/12/19 02:18:18;;;;;;;21.53;18.60;;;;;;;;;;4978052;28;20214;-83
2023/12/19 02:20:46;;;;;;;18.13;16.43;;;;;;;;;;4960478;28;20229;-85
2023/12/19 02:23:12;;;;;;;18.47;16.60;;;;;;;;;;4985240;28;20225;-83
2023/12/19 02:25:38;;;;;;;17.37;15.47;;;;;;;;;;4995133;28;20261;-84
2023/12/19 02:28:06;;;;;;;18.03;16.33;;;;;;;;;;4989456;28;20234;-87
2023/12/19 02:30:34;;;;;;;18.50;16.73;;;;;;;;;;4960973;28;20238;-84
2023/12/19 02:33:01;;;;;;;19.13;17.33;;;;;;;;;;4993683;28;20229;-82
2023/12/19 02:35:31;;;;;;;18.53;16.83;;;;;;;;;;4964645;28;20232;-86
2023/12/19 02:37:56;;;;;;;19.70;17.73;;;;;;;;;;4971644;28;20233;-85
2023/12/19 02:40:22;;;;;;;20.30;18.17;;;;;;;;;;4978144;28;20217;-86
2023/12/19 02:42:48;;;;;;;19.60;17.63;;;;;;;;;;4963123;28;20222;-83
2023/12/19 02:45:15;;;;;;;18.27;16.33;;;;;;;;;;4978537;28;20225;-84
2023/12/19 02:47:45;;;;;;;17.80;15.87;;;;;;;;;;4960223;28;20245;-85
2023/12/19 02:50:11;;;;;;;16.77;15.17;;;;;;;;;;4956336;28;20225;-85
2023/12/19 02:52:39;;;;;;;17.47;15.80;;;;;;;;;;4979352;28;20234;-83
2023/12/19 02:55:08;;;;;;;17.90;16.27;;;;;;;;;;4956712;28;20648;-84
2023/12/19 02:57:33;;;;;;;17.40;15.80;;;;;;;;;;4963633;28;20787;-85
2023/12/19 03:00:01;;;;;;;17.53;15.27;;;;;;;;;;4980764;28;20232;-84
2023/12/19 03:02:26;;;;;;;17.67;16.07;;;;;;;;;;4965595;28;20225;-84
2023/12/19 03:04:52;;;;;;;15.03;13.80;;;;;;;;;;4989657;28;20232;-87
2023/12/19 03:07:18;;;;;;;16.70;15.20;;;;;;;;;;4959155;28;20219;-86
2023/12/19 03:09:43;;;;;;;14.37;12.97;;;;;;;;;;4978539;28;20612;-88
2023/12/19 03:12:11;;;;;;;14.83;13.43;;;;;;;;;;4981256;28;20270;-81
2023/12/19 03:14:36;;;;;;;15.77;14.27;;;;;;;;;;4987606;28;20257;-88
2023/12/19 03:17:03;;;;;;;16.00;14.60;;;;;;;;;;4965379;28;20599;-84
2023/12/19 03:19:31;;;;;;;16.73;15.13;;;;;;;;;;4982457;28;20257;-86
2023/12/19 03:21:57;;;;;;;16.47;15.00;;;;;;;;;;4963353;28;20233;-84
2023/12/19 03:24:25;;;;;;;16.83;15.13;;;;;;;;;;4998652;28;20256;-83
2023/12/19 03:26:50;;;;;;;18.27;16.47;;;;;;;;;;4965354;28;20222;-84
2023/12/19 03:29:19;;;;;;;16.67;15.17;;;;;;;;;;4983488;28;20230;-85
2023/12/19 03:31:44;;;;;;;18.10;16.30;;;;;;;;;;4971062;28;20336;-87
2023/12/19 03:34:13;;;;;;;17.63;16.13;;;;;;;;;;4969090;28;20365;-86
2023/12/19 03:36:43;;;;;;;18.80;17.07;;;;;;;;;;5001124;28;20217;-85
2023/12/19 03:39:09;;;;;;;18.37;16.50;;;;;;;;;;4965908;28;20320;-84
2023/12/19 03:41:37;;;;;;;18.73;16.83;;;;;;;;;;4968406;28;20747;-83
2023/12/19 03:44:02;;;;;;;18.40;16.60;;;;;;;;;;4967802;28;20280;-84
2023/12/19 03:46:28;;;;;;;18.50;16.50;;;;;;;;;;4986400;28;20242;-87
2023/12/19 03:48:54;;;;;;;19.40;17.50;;;;;;;;;;4985176;28;20209;-87
2023/12/19 03:51:21;;;;;;;20.20;18.30;;;;;;;;;;4971405;28;20224;-84
2023/12/19 03:53:47;;;;;;;22.17;19.93;;;;;;;;;;4969172;28;20233;-86
2023/12/19 03:56:14;;;;;;;21.00;18.90;;;;;;;;;;4984631;28;20257;-86
2023/12/19 04:02:27;;;;;;;21.43;19.37;;;;;;;;;;4998436;28;20225;-84
2023/12/19 04:04:53;;;;;;;20.73;18.73;;;;;;;;;;4981587;28;20234;-89
2023/12/19 04:07:21;;;;;;;20.57;18.47;;;;;;;;;;4962915;28;20222;-86
2023/12/19 04:09:49;;;;;;;21.37;19.37;;;;;;;;;;4978568;28;20249;-81
2023/12/19 04:12:14;;;;;;;22.83;20.63;;;;;;;;;;4982483;28;20596;-86
2023/12/19 04:14:42;;;;;;;21.83;19.80;;;;;;;;;;4995548;28;20233;-86
2023/12/19 04:17:08;;;;;;;24.43;21.93;;;;;;;;;;4995653;28;20213;-84
2023/12/19 04:19:36;;;;;;;23.83;21.30;;;;;;;;;;4971778;28;20242;-84
2023/12/19 04:22:02;;;;;;;26.23;23.43;;;;;;;;;;5019190;28;20222;-85
2023/12/19 04:24:28;;;;;;;23.30;21.20;;;;;;;;;;4972046;28;20218;-88
2023/12/19 04:26:53;;;;;;;25.50;23.00;;;;;;;;;;4964655;28;20218;-84
2023/12/19 04:29:19;;;;;;;25.07;22.60;;;;;;;;;;4948343;28;20305;-87
2023/12/19 04:31:44;;;;;;;24.50;22.23;;;;;;;;;;4969062;28;20221;-86
2023/12/19 04:34:15;;;;;;;22.63;20.43;;;;;;;;;;4966955;28;20213;-88
2023/12/19 04:36:42;;;;;;;21.40;19.43;;;;;;;;;;4992235;28;20229;-84
2023/12/19 04:39:10;;;;;;;22.47;20.17;;;;;;;;;;4965443;28;20267;-86
2023/12/19 04:41:37;;;;;;;22.83;20.70;;;;;;;;;;4998007;28;20382;-83
2023/12/19 04:44:03;;;;;;;22.13;19.97;;;;;;;;;;4967978;28;20240;-86
2023/12/19 04:46:33;;;;;;;23.17;20.90;;;;;;;;;;4989906;28;20508;-85
2023/12/19 04:48:59;;;;;;;22.63;20.47;;;;;;;;;;4993040;28;20230;-86
2023/12/19 04:51:27;;;;;;;22.70;20.53;;;;;;;;;;4960953;28;20603;-76
2023/12/19 04:53:53;;;;;;;21.13;19.17;;;;;;;;;;4939629;28;20289;-76
2023/12/19 04:56:23;;;;;;;23.00;20.90;;;;;;;;;;4983149;28;20731;-78
2023/12/19 04:58:49;;;;;;;23.77;21.60;;;;;;;;;;4956394;28;20233;-77
2023/12/19 05:01:16;;;;;;;22.80;20.70;;;;;;;;;;4956324;28;20622;-77
2023/12/19 05:03:41;;;;;;;23.03;20.90;;;;;;;;;;4996802;28;20237;-77
2023/12/19 05:06:16;;;;;;;22.23;20.30;;;;;;;;;;4983965;28;20652;-78
2023/12/19 05:08:42;;;;;;;22.60;20.60;;;;;;;;;;4953282;28;20233;-77
2023/12/19 05:11:07;;;;;;;23.23;20.80;;;;;;;;;;4982059;28;20272;-79
2023/12/19 05:13:38;;;;;;;21.17;19.17;;;;;;;;;;4955653;28;20315;-78
2023/12/19 05:16:13;;;;;;;19.67;17.87;;;;;;;;;;4986872;28;20225;-78
2023/12/19 05:18:42;;;;;;;17.20;15.70;;;;;;;;;;4981663;28;20234;-78
2023/12/19 05:21:08;;;;;;;16.53;15.03;;;;;;;;;;4980105;28;20233;-78
2023/12/19 05:23:38;;;;;;;16.03;14.63;;;;;;;;;;4985020;28;20244;-79
2023/12/19 05:26:04;;;;;;;14.17;12.90;;;;;;;;;;4972298;28;20257;-78
2023/12/19 05:28:33;;;;;;;13.83;12.63;;;;;;;;;;4998457;28;20895;-77
2023/12/19 05:30:59;;;;;;;12.63;11.50;;;;;;;;;;4949085;28;20671;-80
2023/12/19 05:33:27;;;;;;;10.83;9.93;;;;;;;;;;4961503;28;20312;-77
2023/12/19 05:35:53;;;;;;;11.20;10.30;;;;;;;;;;4972886;28;20260;-76
2023/12/19 05:38:18;;;;;;;10.67;9.67;;;;;;;;;;4960377;28;20249;-77
2023/12/19 05:40:47;;;;;;;10.47;9.63;;;;;;;;;;4969847;28;20229;-78
2023/12/19 05:43:13;;;;;;;10.13;9.23;;;;;;;;;;4971531;28;20221;-77
2023/12/19 05:45:39;;;;;;;9.63;8.93;;;;;;;;;;4981018;28;20597;-78
2023/12/19 05:48:05;;;;;;;10.10;9.20;;;;;;;;;;4996408;28;20233;-77
2023/12/19 05:50:33;;;;;;;9.90;9.10;;;;;;;;;;4946816;28;20233;-77
2023/12/19 05:53:03;;;;;;;10.83;9.93;;;;;;;;;;4995775;28;20245;-78
2023/12/19 05:55:29;;;;;;;10.83;10.00;;;;;;;;;;4997399;28;20331;-77
2023/12/19 05:57:54;;;;;;;11.10;10.20;;;;;;;;;;4964370;28;20693;-78
2023/12/19 06:00:23;;;;;;;10.57;9.73;;;;;;;;;;4970785;28;20236;-77
2023/12/19 06:02:50;;;;;;;11.00;10.00;;;;;;;;;;4995942;28;20572;-76
2023/12/19 06:05:19;;;;;;;11.03;10.13;;;;;;;;;;4955213;28;20261;-76
2023/12/19 06:07:45;;;;;;;11.23;10.33;;;;;;;;;;4969516;28;20707;-76
2023/12/19 06:10:13;;;;;;;11.70;10.70;;;;;;;;;;4955483;28;20303;-77
2023/12/19 06:12:39;;;;;;;11.40;10.40;;;;;;;;;;4985869;28;20224;-76
2023/12/19 06:15:08;;;;;;;11.10;10.20;;;;;;;;;;4980315;28;20344;-78
2023/12/19 06:17:36;;;;;;;12.33;11.23;;;;;;;;;;4969263;28;20513;-77
2023/12/19 06:20:02;;;;;;;11.37;10.30;;;;;;;;;;4987239;28;20222;-78
2023/12/19 06:22:30;;;;;;;11.30;10.40;;;;;;;;;;4970820;28;20217;-78
2023/12/19 06:25:00;;;;;;;11.10;10.20;;;;;;;;;;4957491;28;20217;-78
2023/12/19 06:27:28;;;;;;;10.87;9.97;;;;;;;;;;4996261;28;20225;-78
2023/12/19 06:29:56;;;;;;;11.00;10.00;;;;;;;;;;4991348;28;20237;-78
2023/12/19 06:32:22;;;;;;;11.67;10.73;;;;;;;;;;4974624;28;20407;-78
2023/12/19 06:34:48;;;;;;;50.00;44.73;;;;;;;;;;4958284;28;20229;-77
2023/12/19 06:37:13;;;;;;;11.97;10.87;;;;;;;;;;5015869;28;20228;-78
2023/12/19 06:39:39;;;;;;;10.70;9.70;;;;;;;;;;4968544;28;20243;-80
2023/12/19 06:42:09;;;;;;;10.93;10.00;;;;;;;;;;4984608;28;20963;-78
2023/12/19 06:44:35;;;;;;;13.27;12.07;;;;;;;;;;4977840;28;20221;-78
2023/12/19 06:47:00;;;;;;;9.87;9.07;;;;;;;;;;4958216;28;20218;-77
2023/12/19 06:49:29;;;;;;;9.43;8.73;;;;;;;;;;4985733;28;20233;-77
2023/12/19 06:51:54;;;;;;;9.93;9.13;;;;;;;;;;4970083;28;20217;-78
2023/12/19 06:54:20;;;;;;;9.50;8.70;;;;;;;;;;4983185;28;20265;-77
2023/12/19 06:56:48;;;;;;;10.30;9.40;;;;;;;;;;4948859;28;20302;-77
2023/12/19 06:59:14;;;;;;;9.43;8.67;;;;;;;;;;4973327;28;20217;-78
2023/12/19 07:01:39;;;;;;;9.97;9.17;;;;;;;;;;4970173;28;20233;-77
2023/12/19 07:04:05;;;;;;;9.23;8.53;;;;;;;;;;4965824;28;20220;-77
2023/12/19 07:06:35;;;;;;;9.17;8.37;;;;;;;;;;4982195;28;20683;-77
2023/12/19 07:09:03;;;;;;;8.33;7.73;;;;;;;;;;4969553;28;20760;-78
2023/12/19 07:11:33;;;;;;;8.23;7.53;;;;;;;;;;5004530;28;20230;-76
2023/12/19 07:14:01;;;;;;;8.73;7.83;;;;;;;;;;4982882;28;20214;-78
2023/12/19 07:16:29;;;;;;;8.27;7.57;;;;;;;;;;4986981;28;20228;-77
2023/12/19 07:18:54;;;;;;;7.97;7.37;;;;;;;;;;4995881;28;20226;-77
2023/12/19 07:21:23;;;;;;;8.67;7.87;;;;;;;;;;4996828;28;20222;-78
2023/12/19 07:23:52;;;;;;;8.80;8.00;;;;;;;;;;4996541;28;20641;-77
2023/12/19 07:26:27;;;;;;;8.83;8.13;;;;;;;;;;4980710;28;20218;-77
2023/12/19 07:28:59;;;;;;;8.30;7.70;;;;;;;;;;4974738;28;20283;-79
2023/12/19 07:31:30;;;;;;;7.70;7.03;;;;;;;;;;4967992;28;20285;-78
2023/12/19 07:33:59;;;;;;;7.83;7.23;;;;;;;;;;4984832;28;20217;-78
2023/12/19 07:36:28;;;;;;;8.47;7.30;;;;;;;;;;4954341;28;20276;-78
2023/12/19 07:38:53;;;;;;;8.00;7.30;;;;;;;;;;4958695;28;20258;-78
2023/12/19 07:41:20;;;;;;;8.73;7.97;;;;;;;;;;4985499;28;20226;-78
2023/12/19 07:43:48;;;;;;;8.60;7.90;;;;;;;;;;4984260;28;20234;-78
2023/12/19 07:46:16;;;;;;;8.77;8.07;;;;;;;;;;4986642;28;20229;-78
2023/12/19 07:48:43;;;;;;;8.43;7.73;;;;;;;;;;4969423;28;20230;-78
2023/12/19 07:51:14;;;;;;;8.93;8.17;;;;;;;;;;4987222;28;20230;-79
2023/12/19 07:53:40;;;;;;;9.20;8.33;;;;;;;;;;5000373;28;20235;-79
2023/12/19 07:56:08;;;;;;;9.37;8.47;;;;;;;;;;4965744;28;20218;-79
2023/12/19 07:58:38;;;;;;;9.57;8.77;;;;;;;;;;4990210;28;20226;-78
2023/12/19 08:01:11;;;;;;;8.80;8.10;;;;;;;;;;4973672;28;20703;-79
2023/12/19 08:03:40;;;;;;;8.90;8.20;;;;;;;;;;5001334;28;20256;-78
2023/12/19 08:06:08;;;;;;;8.27;7.67;;;;;;;;;;4999765;28;20233;-78
2023/12/19 08:08:34;;;;;;;9.97;9.17;;;;;;;;;;4979392;28;20256;-79
2023/12/19 08:11:02;;;;;;;8.70;8.00;;;;;;;;;;4968293;28;20220;-79
2023/12/19 08:13:28;;;;;;;10.30;9.47;;;;;;;;;;4997091;28;20230;-79
2023/12/19 08:15:55;;;;;;;10.07;9.23;;;;;;;;;;4983835;28;20703;-79
2023/12/19 08:18:23;;;;;;;53.50;45.83;;;;;;;;;;4995823;28;20222;-77
2023/12/19 08:20:51;;;;;;;18.17;16.57;;;;;;;;;;4983644;28;20233;-79
2023/12/19 08:23:17;;;;;;;9.43;8.63;;;;;;;;;;4982337;28;20225;-78
2023/12/19 08:25:43;;;;;;;10.40;9.60;;;;;;;;;;4969492;28;20223;-79
2023/12/19 08:28:09;;;;;;;10.00;9.20;;;;;;;;;;4996557;28;20381;-79
2023/12/19 08:30:34;;;;;;;9.77;8.97;;;;;;;;;;4998177;28;20767;-78
2023/12/19 08:33:02;;;;;;;7.60;7.07;;;;;;;;;;4986480;28;20226;-77
2023/12/19 08:35:29;;;;;;;7.80;7.20;;;;;;;;;;4981799;28;20284;-78
2023/12/19 08:38:01;;;;;;;8.10;7.50;;;;;;;;;;4982990;28;20219;-78
2023/12/19 08:40:30;;;;;;;7.70;7.10;;;;;;;;;;4971308;28;20222;-78
2023/12/19 08:42:55;;;;;;;7.53;6.97;;;;;;;;;;5004287;28;20225;-78
2023/12/19 08:45:23;;;;;;;8.43;7.73;;;;;;;;;;4984109;28;20229;-78
2023/12/19 08:47:50;;;;;;;8.00;7.50;;;;;;;;;;4979093;28;20234;-79
2023/12/19 08:50:18;;;;;;;8.27;7.63;;;;;;;;;;4980019;28;20226;-79
2023/12/19 08:52:44;;;;;;;7.70;7.10;;;;;;;;;;4989394;28;20214;-77
2023/12/19 08:55:11;;;;;;;7.40;6.90;;;;;;;;;;4985813;28;20293;-78
2023/12/19 08:57:48;;;;;;;8.03;7.33;;;;;;;;;;4986647;28;20570;-79
2023/12/19 09:00:19;;;;;;;6.70;6.20;;;;;;;;;;4996429;28;20248;-78
2023/12/19 09:02:48;;;;;;;7.87;6.40;;;;;;;;;;4963241;28;20217;-79
2023/12/19 09:05:21;;;;;;;6.60;6.10;;;;;;;;;;4980558;28;20249;-77
2023/12/19 09:07:49;;;;;;;6.70;6.20;;;;;;;;;;4955389;28;20248;-77
2023/12/19 09:10:15;;;;;;;6.07;5.47;;;;;;;;;;4979888;28;20213;-78
2023/12/19 09:12:43;;;;;;;6.73;6.23;;;;;;;;;;4955002;28;20687;-78
2023/12/19 09:15:10;;;;;;;6.27;5.77;;;;;;;;;;4940826;28;20225;-77
2023/12/19 09:17:41;;;;;;;5.97;5.57;;;;;;;;;;4983026;28;20281;-76
2023/12/19 09:20:07;;;;;;;6.07;5.60;;;;;;;;;;4976244;28;20249;-79
2023/12/19 09:22:33;;;;;;;7.77;7.17;;;;;;;;;;4975736;28;20226;-76
2023/12/19 09:24:59;;;;;;;5.73;5.27;;;;;;;;;;4983835;28;20225;-77
2023/12/19 09:27:29;;;;;;;5.20;4.80;;;;;;;;;;4983939;28;20787;-76
2023/12/19 09:29:57;;;;;;;5.00;4.60;;;;;;;;;;4993691;28;20221;-79
2023/12/19 09:32:22;;;;;;;12.47;11.03;;;;;;;;;;4989508;28;20220;-78
2023/12/19 09:34:50;;;;;;;9.40;8.50;;;;;;;;;;4975222;28;20228;-78
2023/12/19 09:37:23;;;;;;;7.50;6.90;;;;;;;;;;4972294;28;20621;-79
2023/12/19 09:39:51;;;;;;;6.80;6.10;;;;;;;;;;5022574;28;20236;-76
2023/12/19 09:42:19;;;;;;;6.67;6.13;;;;;;;;;;4968012;28;20221;-77
2023/12/19 09:44:51;;;;;;;5.37;4.97;;;;;;;;;;4982664;28;20248;-79
2023/12/19 09:47:25;;;;;;;6.10;5.70;;;;;;;;;;4964645;28;20244;-78
2023/12/19 09:49:57;;;;;;;5.20;4.80;;;;;;;;;;4997689;28;20894;-77
2023/12/19 09:52:24;;;;;;;5.03;4.63;;;;;;;;;;4986242;28;20244;-78
2023/12/19 09:54:52;;;;;;;6.00;5.50;;;;;;;;;;4984102;28;20219;-77
2023/12/19 09:57:19;;;;;;;5.37;4.80;;;;;;;;;;4953737;28;20236;-78
2023/12/19 09:59:45;;;;;;;5.40;5.00;;;;;;;;;;4972191;28;20214;-78
2023/12/19 10:02:11;;;;;;;4.93;4.63;;;;;;;;;;4957237;28;20233;-77
2023/12/19 10:04:36;;;;;;;4.47;4.17;;;;;;;;;;4982833;28;20229;-77
2023/12/19 10:07:02;;;;;;;4.80;4.40;;;;;;;;;;4964395;28;20224;-76
2023/12/19 10:09:30;;;;;;;4.73;4.43;;;;;;;;;;4979332;28;20241;-77
2023/12/19 10:12:12;;;;;;;4.80;4.50;;;;;;;;;;5000968;28;20785;-78
2023/12/19 10:14:38;;;;;;;5.00;4.60;;;;;;;;;;4979481;28;20252;-78
2023/12/19 10:17:04;;;;;;;3.97;3.70;;;;;;;;;;4975148;28;20222;-77
2023/12/19 10:19:30;;;;;;;4.07;3.80;;;;;;;;;;4969688;28;20236;-77
2023/12/19 10:22:06;;;;;;;4.10;3.80;;;;;;;;;;4963347;28;20218;-76
2023/12/19 10:24:31;;;;;;;4.10;3.80;;;;;;;;;;4967557;28;20577;-77
2023/12/19 10:27:05;;;;;;;3.50;3.30;;;;;;;;;;4978701;28;20214;-77
2023/12/19 10:29:36;;;;;;;3.40;3.20;;;;;;;;;;4946313;28;20260;-77
2023/12/19 10:32:18;;;;;;;3.90;3.60;;;;;;;;;;4977146;28;20224;-78
2023/12/19 10:34:44;;;;;;;5.53;5.13;;;;;;;;;;4986649;28;20228;-79
2023/12/19 10:37:11;;;;;;;4.30;4.00;;;;;;;;;;4980190;28;20305;-77
2023/12/19 10:39:40;;;;;;;3.77;3.47;;;;;;;;;;4966198;28;20229;-77
2023/12/19 10:42:06;;;;;;;4.43;3.80;;;;;;;;;;4952267;28;20721;-77
2023/12/19 10:44:37;;;;;;;4.40;4.10;;;;;;;;;;4961673;28;20308;-78
2023/12/19 10:47:05;;;;;;;3.20;3.00;;;;;;;;;;4967628;28;20766;-77
2023/12/19 10:49:31;;;;;;;3.97;3.67;;;;;;;;;;4978079;28;20234;-78
2023/12/19 10:51:59;;;;;;;3.97;3.60;;;;;;;;;;4995510;28;20226;-79
2023/12/19 10:54:27;;;;;;;4.13;3.83;;;;;;;;;;4983578;28;20241;-77
2023/12/19 10:57:06;;;;;;;4.63;3.63;;;;;;;;;;4967027;28;20221;-77
2023/12/19 11:00:13;;;;;;;6.03;3.30;;;;;;;;;;4958270;28;20237;-78
2023/12/19 11:02:46;;;;;;;4.03;3.73;;;;;;;;;;4969159;28;20227;-79
2023/12/19 11:05:25;;;;;;;3.80;3.60;;;;;;;;;;5004509;28;21036;-78
2023/12/19 11:07:55;;;;;;;3.37;3.17;;;;;;;;;;4996131;28;20240;-78
2023/12/19 11:10:23;;;;;;;4.07;3.70;;;;;;;;;;4984840;28;20240;-77
2023/12/19 11:12:51;;;;;;;3.80;3.60;;;;;;;;;;4969475;28;20224;-77
2023/12/19 11:15:24;;;;;;;3.70;3.43;;;;;;;;;;4976724;28;20220;-76
2023/12/19 11:17:58;;;;;;;4.50;4.00;;;;;;;;;;4988387;28;20241;-78
2023/12/19 11:20:29;;;;;;;4.10;3.90;;;;;;;;;;4972757;28;20237;-76
2023/12/19 11:23:04;;;;;;;3.70;3.50;;;;;;;;;;5015325;28;20222;-78
2023/12/19 11:25:39;;;;;;;4.60;4.30;;;;;;;;;;5001357;28;20236;-78
2023/12/19 11:28:05;;;;;;;3.97;3.77;;;;;;;;;;4967970;28;20233;-78
2023/12/19 11:30:30;;;;;;;4.03;3.73;;;;;;;;;;4987992;28;20316;-78
2023/12/19 11:32:58;;;;;;;4.07;3.77;;;;;;;;;;5009696;28;20316;-77
2023/12/19 11:35:27;;;;;;;3.60;3.40;;;;;;;;;;4984895;28;20241;-77
2023/12/19 11:38:17;;;;;;;3.63;3.43;;;;;;;;;;4983995;28;20225;-78
2023/12/19 11:40:49;;;;;;;3.17;3.00;;;;;;;;;;5016757;28;20304;-79
2023/12/19 11:43:29;;;;;;;3.33;3.13;;;;;;;;;;4978675;28;20243;-77
2023/12/19 11:46:06;;;;;;;3.50;3.30;;;;;;;;;;4985022;28;20677;-79
2023/12/19 11:48:44;;;;;;;3.40;3.20;;;;;;;;;;4983914;28;20260;-79
2023/12/19 11:51:11;;;;;;;4.87;4.47;;;;;;;;;;4992969;28;20283;-78
2023/12/19 11:53:41;;;;;;;4.53;4.13;;;;;;;;;;4971442;28;20955;-78
2023/12/19 11:56:11;;;;;;;7.43;6.80;;;;;;;;;;4982248;28;20257;-78
2023/12/19 11:58:47;;;;;;;4.87;4.57;;;;;;;;;;4977211;28;20280;-77
2023/12/19 12:01:15;;;;;;;3.90;3.70;;;;;;;;;;5002655;28;20360;-77
2023/12/19 12:03:41;;;;;;;3.70;3.50;;;;;;;;;;4967604;28;20615;-78
2023/12/19 12:06:08;;;;;;;4.30;3.30;;;;;;;;;;4974560;28;20226;-78
2023/12/19 12:08:36;;;;;;;3.50;3.23;;;;;;;;;;4963946;28;20234;-78
2023/12/19 12:11:04;;;;;;;3.60;3.40;;;;;;;;;;5003646;28;20241;-78
2023/12/19 12:13:33;;;;;;;4.67;4.37;;;;;;;;;;4977100;28;20245;-78
2023/12/19 12:15:59;;;;;;;3.17;2.97;;;;;;;;;;4975606;28;20491;-78
2023/12/19 12:18:26;;;;;;;3.20;2.97;;;;;;;;;;4975826;28;20316;-78
2023/12/19 12:20:55;;;;;;;4.13;3.40;;;;;;;;;;5009860;28;20229;-77
2023/12/19 12:23:21;;;;;;;3.50;3.20;;;;;;;;;;4968498;28;20244;-78
2023/12/19 12:25:56;;;;;;;3.47;3.27;;;;;;;;;;4956345;28;20995;-78
2023/12/19 12:28:28;;;;;;;3.47;3.27;;;;;;;;;;4989134;28;20240;-78
2023/12/19 12:31:05;;;;;;;3.87;3.57;;;;;;;;;;5007284;28;20221;-79
2023/12/19 12:33:31;;;;;;;5.10;4.80;;;;;;;;;;4994206;28;20229;-78
2023/12/19 12:35:57;;;;;;;4.07;3.70;;;;;;;;;;4953729;28;20237;-78
2023/12/19 12:38:23;;;;;;;6.87;6.13;;;;;;;;;;4958232;28;20240;-78
2023/12/19 12:41:00;;;;;;;5.07;4.70;;;;;;;;;;4975006;28;20218;-76
2023/12/19 12:43:39;;;;;;;4.17;3.87;;;;;;;;;;5001850;28;20293;-77
2023/12/19 12:46:11;;;;;;;4.13;3.83;;;;;;;;;;4976248;28;20225;-78
2023/12/19 12:48:38;;;;;;;4.60;4.30;;;;;;;;;;4988188;28;20246;-78
2023/12/19 12:51:07;;;;;;;4.37;4.07;;;;;;;;;;4974258;28;20222;-79
2023/12/19 12:53:33;;;;;;;4.50;4.10;;;;;;;;;;4971512;28;20234;-78
2023/12/19 12:56:16;;;;;;;4.60;4.30;;;;;;;;;;4984830;28;20221;-77
2023/12/19 12:58:41;;;;;;;5.73;5.33;;;;;;;;;;4990935;28;20257;-77
2023/12/19 13:01:09;;;;;;;6.13;5.73;;;;;;;;;;4987771;28;20729;-78
2023/12/19 13:03:35;;;;;;;5.17;4.77;;;;;;;;;;4978336;28;20297;-78
2023/12/19 13:06:01;;;;;;;5.40;5.10;;;;;;;;;;4968976;28;20237;-78
2023/12/19 13:08:31;;;;;;;4.70;4.33;;;;;;;;;;4956930;28;20328;-78
2023/12/19 13:11:00;;;;;;;4.77;4.47;;;;;;;;;;4969394;28;20222;-77
2023/12/19 13:13:27;;;;;;;5.40;5.00;;;;;;;;;;4973220;28;20234;-78
2023/12/19 13:15:56;;;;;;;6.50;5.97;;;;;;;;;;4990837;28;20229;-78
2023/12/19 13:18:24;;;;;;;6.20;5.60;;;;;;;;;;4975770;28;20233;-78
2023/12/19 13:20:51;;;;;;;5.90;5.40;;;;;;;;;;4991262;28;20247;-78
2023/12/19 13:23:17;;;;;;;5.80;5.40;;;;;;;;;;4960549;28;20233;-77
2023/12/19 13:25:44;;;;;;;5.77;5.37;;;;;;;;;;4997525;28;20225;-77
2023/12/19 13:28:10;;;;;;;6.57;6.07;;;;;;;;;;4981644;28;20238;-77
2023/12/19 13:30:36;;;;;;;7.03;6.53;;;;;;;;;;4971266;28;20234;-77
2023/12/19 13:33:06;;;;;;;7.70;7.10;;;;;;;;;;4965314;28;20753;-78
2023/12/19 13:35:35;;;;;;;10.70;7.53;;;;;;;;;;4995186;28;20265;-80
2023/12/19 13:38:03;;;;;;;8.53;7.73;;;;;;;;;;4973191;28;20225;-78
2023/12/19 13:40:29;;;;;;;8.93;8.23;;;;;;;;;;4985961;28;20234;-79
2023/12/19 13:42:57;;;;;;;9.87;8.97;;;;;;;;;;4977909;28;20221;-78
2023/12/19 13:45:26;;;;;;;9.40;8.50;;;;;;;;;;4988110;28;20226;-79
2023/12/19 13:47:52;;;;;;;9.60;8.77;;;;;;;;;;4973825;28;20225;-78
2023/12/19 13:50:18;;;;;;;9.37;8.43;;;;;;;;;;4958851;28;20221;-78
2023/12/19 13:52:44;;;;;;;10.00;9.10;;;;;;;;;;4972320;28;20229;-77
2023/12/19 13:55:09;;;;;;;10.13;9.27;;;;;;;;;;4954731;28;20230;-79
2023/12/19 13:57:35;;;;;;;8.53;7.73;;;;;;;;;;4970125;28;20217;-77
2023/12/19 14:00:04;;;;;;;8.50;7.87;;;;;;;;;;5004418;28;20218;-77
2023/12/19 14:02:38;;;;;;;8.40;7.73;;;;;;;;;;4981139;28;20264;-77
2023/12/19 14:05:09;;;;;;;8.33;7.63;;;;;;;;;;4960263;28;20222;-78
2023/12/19 14:07:39;;;;;;;9.00;8.20;;;;;;;;;;4965211;28;20226;-78
2023/12/19 14:10:07;;;;;;;8.10;7.40;;;;;;;;;;4972904;28;20323;-78
2023/12/19 14:12:38;;;;;;;10.57;9.67;;;;;;;;;;4966764;28;20227;-77
2023/12/19 14:15:05;;;;;;;9.80;9.00;;;;;;;;;;4954310;28;20221;-77
2023/12/19 14:17:30;;;;;;;11.73;10.63;;;;;;;;;;4971748;28;20225;-76
2023/12/19 14:19:56;;;;;;;10.43;9.47;;;;;;;;;;4981154;28;20232;-78
2023/12/19 14:22:22;;;;;;;9.70;8.83;;;;;;;;;;4973303;28;20226;-78
2023/12/19 14:24:51;;;;;;;10.33;9.50;;;;;;;;;;4991217;28;20296;-78
2023/12/19 14:27:21;;;;;;;9.67;8.87;;;;;;;;;;4967065;28;21030;-76
2023/12/19 14:29:46;;;;;;;8.60;7.83;;;;;;;;;;4950776;28;20337;-76
2023/12/19 14:32:12;;;;;;;8.93;8.03;;;;;;;;;;4977347;28;20210;-77
2023/12/19 14:34:41;;;;;;;9.20;8.37;;;;;;;;;;4964328;28;20225;-78
2023/12/19 14:37:07;;;;;;;11.00;10.00;;;;;;;;;;4998035;28;20280;-81
2023/12/19 14:39:32;;;;;;;9.10;8.40;;;;;;;;;;4980811;28;20244;-78